sensor_id;sensor_type;location;lat;lon;timestamp;temperature;humidity
69189;DHT22;56302;52.322;5.926;2023-12-20T00:02:17;5.20;99.90
69189;DHT22;56302;52.322;5.926;2023-12-20T00:04:43;5.20;99.90
69189;DHT22;56302;52.322;5.926;2023-12-20T00:07:08;5.20;99.90
69189;DHT22;56302;52.322;5.926;2023-12-20T00:09:34;5.10;99.90
69189;DHT22;56302;52.322;5.926;2023-12-20T00:11:59;5.10;99.90
69189;DHT22;56302;52.322;5.926;2023-12-20T00:14:25;5.10;99.90
69189;DHT22;56302;52.322;5.926;2023-12-20T00:16:51;5.10;99.90
69189;DHT22;56302;52.322;5.926;2023-12-20T00:19:16;5.00;99.90
69189;DHT22;56302;52.322;5.926;2023-12-20T00:21:42;5.00;99.90
69189;DHT22;56302;52.322;5.926;2023-12-20T00:24:08;5.00;99.90
69189;DHT22;56302;52.322;5.926;2023-12-20T00:26:33;5.00;99.90
69189;DHT22;56302;52.322;5.926;2023-12-20T00:28:59;5.00;99.90
69189;DHT22;56302;52.322;5.926;2023-12-20T00:31:25;4.90;99.90
69189;DHT22;56302;52.322;5.926;2023-12-20T00:33:50;4.90;99.90
69189;DHT22;56302;52.322;5.926;2023-12-20T00:36:16;4.90;99.90
69189;DHT22;56302;52.322;5.926;2023-12-20T00:38:41;4.80;99.90
69189;DHT22;56302;52.322;5.926;2023-12-20T00:41:07;4.80;99.90
69189;DHT22;56302;52.322;5.926;2023-12-20T00:43:33;4.80;99.90
69189;DHT22;56302;52.322;5.926;2023-12-20T00:45:58;4.80;99.90
69189;DHT22;56302;52.322;5.926;2023-12-20T00:48:25;4.80;99.90
69189;DHT22;56302;52.322;5.926;2023-12-20T00:50:52;4.70;99.90
69189;DHT22;56302;52.322;5.926;2023-12-20T00:53:18;4.80;99.90
69189;DHT22;56302;52.322;5.926;2023-12-20T00:55:44;4.70;99.90
69189;DHT22;56302;52.322;5.926;2023-12-20T00:58:10;4.70;99.90
69189;DHT22;56302;52.322;5.926;2023-12-20T01:00:35;4.70;99.90
69189;DHT22;56302;52.322;5.926;2023-12-20T01:03:01;4.70;99.90
69189;DHT22;56302;52.322;5.926;2023-12-20T01:05:26;4.60;99.90
69189;DHT22;56302;52.322;5.926;2023-12-20T01:07:52;4.60;99.90
69189;DHT22;56302;52.322;5.926;2023-12-20T01:10:18;4.60;99.90
69189;DHT22;56302;52.322;5.926;2023-12-20T01:12:44;4.60;99.90
69189;DHT22;56302;52.322;5.926;2023-12-20T01:15:10;4.60;99.90
69189;DHT22;56302;52.322;5.926;2023-12-20T01:17:35;4.60;99.90
69189;DHT22;56302;52.322;5.926;2023-12-20T01:20:01;4.60;99.90
69189;DHT22;56302;52.322;5.926;2023-12-20T01:22:27;4.60;99.90
69189;DHT22;56302;52.322;5.926;2023-12-20T01:24:52;4.60;99.90
69189;DHT22;56302;52.322;5.926;2023-12-20T01:27:18;4.60;99.90
69189;DHT22;56302;52.322;5.926;2023-12-20T01:29:44;4.60;99.90
69189;DHT22;56302;52.322;5.926;2023-12-20T01:32:09;4.60;99.90
69189;DHT22;56302;52.322;5.926;2023-12-20T01:34:35;4.60;99.90
69189;DHT22;56302;52.322;5.926;2023-12-20T01:37:01;4.60;99.90
69189;DHT22;56302;52.322;5.926;2023-12-20T01:39:27;4.60;99.90
69189;DHT22;56302;52.322;5.926;2023-12-20T01:41:53;4.50;99.90
69189;DHT22;56302;52.322;5.926;2023-12-20T01:44:19;4.50;99.90
69189;DHT22;56302;52.322;5.926;2023-12-20T01:46:45;4.50;99.90
69189;DHT22;56302;52.322;5.926;2023-12-20T01:49:11;4.60;99.90
69189;DHT22;56302;52.322;5.926;2023-12-20T01:51:37;4.60;99.90
69189;DHT22;56302;52.322;5.926;2023-12-20T01:54:04;4.60;99.90
69189;DHT22;56302;52.322;5.926;2023-12-20T01:56:31;4.60;99.90
69189;DHT22;56302;52.322;5.926;2023-12-20T01:58:57;4.60;99.90
69189;DHT22;56302;52.322;5.926;2023-12-20T02:01:23;4.60;99.90
69189;DHT22;56302;52.322;5.926;2023-12-20T02:03:50;4.70;99.90
69189;DHT22;56302;52.322;5.926;2023-12-20T02:06:16;4.70;99.90
69189;DHT22;56302;52.322;5.926;2023-12-20T02:08:42;4.80;99.90
69189;DHT22;56302;52.322;5.926;2023-12-20T02:11:07;4.70;99.90
69189;DHT22;56302;52.322;5.926;2023-12-20T02:13:33;4.70;99.90
69189;DHT22;56302;52.322;5.926;2023-12-20T02:15:59;4.80;99.90
69189;DHT22;56302;52.322;5.926;2023-12-20T02:18:24;4.70;99.90
69189;DHT22;56302;52.322;5.926;2023-12-20T02:20:50;4.70;99.90
69189;DHT22;56302;52.322;5.926;2023-12-20T02:23:15;4.80;99.90
69189;DHT22;56302;52.322;5.926;2023-12-20T02:25:41;4.80;99.90
69189;DHT22;56302;52.322;5.926;2023-12-20T02:28:07;4.90;99.90
69189;DHT22;56302;52.322;5.926;2023-12-20T02:30:32;4.90;99.90
69189;DHT22;56302;52.322;5.926;2023-12-20T02:32:59;4.90;99.90
69189;DHT22;56302;52.322;5.926;2023-12-20T02:35:25;5.00;99.90
69189;DHT22;56302;52.322;5.926;2023-12-20T02:37:51;4.90;99.90
69189;DHT22;56302;52.322;5.926;2023-12-20T02:40:17;4.90;99.90
69189;DHT22;56302;52.322;5.926;2023-12-20T02:42:42;4.90;99.90
69189;DHT22;56302;52.322;5.926;2023-12-20T02:45:08;4.90;99.90
69189;DHT22;56302;52.322;5.926;2023-12-20T02:47:33;4.90;99.90
69189;DHT22;56302;52.322;5.926;2023-12-20T02:49:59;4.90;99.90
69189;DHT22;56302;52.322;5.926;2023-12-20T02:52:25;4.90;99.90
69189;DHT22;56302;52.322;5.926;2023-12-20T02:54:50;4.90;99.90
69189;DHT22;56302;52.322;5.926;2023-12-20T02:57:16;4.80;99.90
69189;DHT22;56302;52.322;5.926;2023-12-20T02:59:41;4.80;99.90
69189;DHT22;56302;52.322;5.926;2023-12-20T03:02:07;4.80;99.90
69189;DHT22;56302;52.322;5.926;2023-12-20T03:04:33;4.80;99.90
69189;DHT22;56302;52.322;5.926;2023-12-20T03:06:58;4.80;99.90
69189;DHT22;56302;52.322;5.926;2023-12-20T03:09:24;4.80;99.90
69189;DHT22;56302;52.322;5.926;2023-12-20T03:11:49;4.80;99.90
69189;DHT22;56302;52.322;5.926;2023-12-20T03:14:15;4.80;99.90
69189;DHT22;56302;52.322;5.926;2023-12-20T03:16:41;4.80;99.90
69189;DHT22;56302;52.322;5.926;2023-12-20T03:19:06;4.80;99.90
69189;DHT22;56302;52.322;5.926;2023-12-20T03:21:32;4.80;99.90
69189;DHT22;56302;52.322;5.926;2023-12-20T03:23:57;4.80;99.90
69189;DHT22;56302;52.322;5.926;2023-12-20T03:26:23;4.90;99.90
69189;DHT22;56302;52.322;5.926;2023-12-20T03:28:48;4.90;99.90
69189;DHT22;56302;52.322;5.926;2023-12-20T03:31:14;4.90;99.90
69189;DHT22;56302;52.322;5.926;2023-12-20T03:33:40;5.00;99.90
69189;DHT22;56302;52.322;5.926;2023-12-20T03:36:06;5.00;99.90
69189;DHT22;56302;52.322;5.926;2023-12-20T03:38:31;5.00;99.90
69189;DHT22;56302;52.322;5.926;2023-12-20T03:40:57;4.90;99.90
69189;DHT22;56302;52.322;5.926;2023-12-20T03:43:22;4.90;99.90
69189;DHT22;56302;52.322;5.926;2023-12-20T03:45:48;4.90;99.90
69189;DHT22;56302;52.322;5.926;2023-12-20T03:48:13;5.00;99.90
69189;DHT22;56302;52.322;5.926;2023-12-20T03:50:39;5.10;99.90
69189;DHT22;56302;52.322;5.926;2023-12-20T03:53:05;5.10;99.90
69189;DHT22;56302;52.322;5.926;2023-12-20T03:55:30;5.10;99.90
69189;DHT22;56302;52.322;5.926;2023-12-20T03:57:56;5.20;99.90
69189;DHT22;56302;52.322;5.926;2023-12-20T04:00:21;5.10;99.90
69189;DHT22;56302;52.322;5.926;2023-12-20T04:02:47;5.10;99.90
69189;DHT22;56302;52.322;5.926;2023-12-20T04:05:12;5.20;99.90
69189;DHT22;56302;52.322;5.926;2023-12-20T04:07:38;5.20;99.90
69189;DHT22;56302;52.322;5.926;2023-12-20T04:10:05;5.20;99.90
69189;DHT22;56302;52.322;5.926;2023-12-20T04:12:30;5.20;99.90
69189;DHT22;56302;52.322;5.926;2023-12-20T04:14:57;5.10;99.90
69189;DHT22;56302;52.322;5.926;2023-12-20T04:17:23;5.10;99.90
69189;DHT22;56302;52.322;5.926;2023-12-20T04:19:51;5.10;99.90
69189;DHT22;56302;52.322;5.926;2023-12-20T04:22:17;5.10;99.90
69189;DHT22;56302;52.322;5.926;2023-12-20T04:24:43;5.10;99.90
69189;DHT22;56302;52.322;5.926;2023-12-20T04:27:09;5.20;99.90
69189;DHT22;56302;52.322;5.926;2023-12-20T04:29:34;5.20;99.90
69189;DHT22;56302;52.322;5.926;2023-12-20T04:32:00;5.20;99.90
69189;DHT22;56302;52.322;5.926;2023-12-20T04:34:25;5.20;99.90
69189;DHT22;56302;52.322;5.926;2023-12-20T04:36:51;5.20;99.90
69189;DHT22;56302;52.322;5.926;2023-12-20T04:39:17;5.30;99.90
69189;DHT22;56302;52.322;5.926;2023-12-20T04:41:42;5.30;99.90
69189;DHT22;56302;52.322;5.926;2023-12-20T04:44:08;5.30;99.90
69189;DHT22;56302;52.322;5.926;2023-12-20T04:46:34;5.30;99.90
69189;DHT22;56302;52.322;5.926;2023-12-20T04:48:59;5.40;99.90
69189;DHT22;56302;52.322;5.926;2023-12-20T04:51:25;5.40;99.90
69189;DHT22;56302;52.322;5.926;2023-12-20T04:53:50;5.40;99.90
69189;DHT22;56302;52.322;5.926;2023-12-20T04:56:16;5.40;99.90
69189;DHT22;56302;52.322;5.926;2023-12-20T04:58:42;5.50;99.90
69189;DHT22;56302;52.322;5.926;2023-12-20T05:01:12;5.50;99.90
69189;DHT22;56302;52.322;5.926;2023-12-20T05:03:38;5.60;99.90
69189;DHT22;56302;52.322;5.926;2023-12-20T05:06:04;5.60;99.90
69189;DHT22;56302;52.322;5.926;2023-12-20T05:08:30;5.70;99.90
69189;DHT22;56302;52.322;5.926;2023-12-20T05:10:55;5.70;99.90
69189;DHT22;56302;52.322;5.926;2023-12-20T05:13:21;5.70;99.90
69189;DHT22;56302;52.322;5.926;2023-12-20T05:15:47;5.70;99.90
69189;DHT22;56302;52.322;5.926;2023-12-20T05:18:13;5.70;99.90
69189;DHT22;56302;52.322;5.926;2023-12-20T05:20:39;5.70;99.90
69189;DHT22;56302;52.322;5.926;2023-12-20T05:23:05;5.70;99.90
69189;DHT22;56302;52.322;5.926;2023-12-20T05:25:31;5.70;99.90
69189;DHT22;56302;52.322;5.926;2023-12-20T05:27:56;5.70;99.90
69189;DHT22;56302;52.322;5.926;2023-12-20T05:30:22;5.70;99.90
69189;DHT22;56302;52.322;5.926;2023-12-20T05:32:48;5.70;99.90
69189;DHT22;56302;52.322;5.926;2023-12-20T05:35:14;5.70;99.90
69189;DHT22;56302;52.322;5.926;2023-12-20T05:37:40;5.80;99.90
69189;DHT22;56302;52.322;5.926;2023-12-20T05:40:06;5.80;99.90
69189;DHT22;56302;52.322;5.926;2023-12-20T05:42:38;5.80;99.90
69189;DHT22;56302;52.322;5.926;2023-12-20T05:45:05;5.80;99.90
69189;DHT22;56302;52.322;5.926;2023-12-20T05:47:31;5.90;99.90
69189;DHT22;56302;52.322;5.926;2023-12-20T05:49:56;5.90;99.90
69189;DHT22;56302;52.322;5.926;2023-12-20T05:52:22;5.90;99.90
69189;DHT22;56302;52.322;5.926;2023-12-20T05:54:48;5.90;99.90
69189;DHT22;56302;52.322;5.926;2023-12-20T05:57:13;5.90;99.90
69189;DHT22;56302;52.322;5.926;2023-12-20T05:59:39;5.90;99.90
69189;DHT22;56302;52.322;5.926;2023-12-20T06:02:05;5.90;99.90
69189;DHT22;56302;52.322;5.926;2023-12-20T06:04:30;5.90;99.90
69189;DHT22;56302;52.322;5.926;2023-12-20T06:06:56;6.00;99.70
69189;DHT22;56302;52.322;5.926;2023-12-20T06:09:22;6.00;99.60
69189;DHT22;56302;52.322;5.926;2023-12-20T06:11:47;6.00;99.50
69189;DHT22;56302;52.322;5.926;2023-12-20T06:14:13;6.00;99.60
69189;DHT22;56302;52.322;5.926;2023-12-20T06:16:39;6.00;99.60
69189;DHT22;56302;52.322;5.926;2023-12-20T06:19:04;6.00;99.50
69189;DHT22;56302;52.322;5.926;2023-12-20T06:21:30;6.00;99.40
69189;DHT22;56302;52.322;5.926;2023-12-20T06:23:55;6.10;99.30
69189;DHT22;56302;52.322;5.926;2023-12-20T06:26:21;6.10;98.80
69189;DHT22;56302;52.322;5.926;2023-12-20T06:28:46;6.10;98.70
69189;DHT22;56302;52.322;5.926;2023-12-20T06:31:12;6.20;98.30
69189;DHT22;56302;52.322;5.926;2023-12-20T06:33:38;6.20;98.10
69189;DHT22;56302;52.322;5.926;2023-12-20T06:36:06;6.10;98.40
69189;DHT22;56302;52.322;5.926;2023-12-20T06:38:31;6.10;98.40
69189;DHT22;56302;52.322;5.926;2023-12-20T06:40:57;6.10;98.60
69189;DHT22;56302;52.322;5.926;2023-12-20T06:43:24;6.10;98.70
69189;DHT22;56302;52.322;5.926;2023-12-20T06:45:49;6.10;98.80
69189;DHT22;56302;52.322;5.926;2023-12-20T06:48:16;6.10;99.00
69189;DHT22;56302;52.322;5.926;2023-12-20T06:50:42;6.10;98.90
69189;DHT22;56302;52.322;5.926;2023-12-20T06:53:07;6.20;98.70
69189;DHT22;56302;52.322;5.926;2023-12-20T06:55:35;6.20;98.70
69189;DHT22;56302;52.322;5.926;2023-12-20T06:58:01;6.20;98.70
69189;DHT22;56302;52.322;5.926;2023-12-20T07:00:27;6.20;98.70
69189;DHT22;56302;52.322;5.926;2023-12-20T07:02:52;6.20;98.50
69189;DHT22;56302;52.322;5.926;2023-12-20T07:05:18;6.30;98.30
69189;DHT22;56302;52.322;5.926;2023-12-20T07:07:45;6.30;98.30
69189;DHT22;56302;52.322;5.926;2023-12-20T07:10:12;6.30;98.30
69189;DHT22;56302;52.322;5.926;2023-12-20T07:12:38;6.30;98.20
69189;DHT22;56302;52.322;5.926;2023-12-20T07:15:04;6.30;98.00
69189;DHT22;56302;52.322;5.926;2023-12-20T07:17:31;6.30;98.10
69189;DHT22;56302;52.322;5.926;2023-12-20T07:19:58;6.30;98.00
69189;DHT22;56302;52.322;5.926;2023-12-20T07:22:24;6.30;98.10
69189;DHT22;56302;52.322;5.926;2023-12-20T07:24:49;6.30;98.10
69189;DHT22;56302;52.322;5.926;2023-12-20T07:27:17;6.30;98.30
69189;DHT22;56302;52.322;5.926;2023-12-20T07:29:43;6.30;98.50
69189;DHT22;56302;52.322;5.926;2023-12-20T07:32:09;6.30;98.50
69189;DHT22;56302;52.322;5.926;2023-12-20T07:34:34;6.30;98.50
69189;DHT22;56302;52.322;5.926;2023-12-20T07:37:00;6.30;98.40
69189;DHT22;56302;52.322;5.926;2023-12-20T07:39:26;6.30;98.20
69189;DHT22;56302;52.322;5.926;2023-12-20T07:41:51;6.40;98.20
69189;DHT22;56302;52.322;5.926;2023-12-20T07:44:17;6.40;98.00
69189;DHT22;56302;52.322;5.926;2023-12-20T07:46:42;6.40;98.00
69189;DHT22;56302;52.322;5.926;2023-12-20T07:49:08;6.40;97.80
69189;DHT22;56302;52.322;5.926;2023-12-20T07:51:35;6.40;97.60
69189;DHT22;56302;52.322;5.926;2023-12-20T07:54:01;6.50;97.30
69189;DHT22;56302;52.322;5.926;2023-12-20T07:56:26;6.50;97.40
69189;DHT22;56302;52.322;5.926;2023-12-20T07:58:52;6.50;97.50
69189;DHT22;56302;52.322;5.926;2023-12-20T08:01:17;6.50;97.40
69189;DHT22;56302;52.322;5.926;2023-12-20T08:03:43;6.50;97.20
69189;DHT22;56302;52.322;5.926;2023-12-20T08:06:09;6.50;97.20
69189;DHT22;56302;52.322;5.926;2023-12-20T08:08:34;6.60;96.90
69189;DHT22;56302;52.322;5.926;2023-12-20T08:11:00;6.60;96.90
69189;DHT22;56302;52.322;5.926;2023-12-20T08:13:26;6.60;96.90
69189;DHT22;56302;52.322;5.926;2023-12-20T08:15:53;6.60;97.00
69189;DHT22;56302;52.322;5.926;2023-12-20T08:18:18;6.60;96.90
69189;DHT22;56302;52.322;5.926;2023-12-20T08:20:44;6.60;97.10
69189;DHT22;56302;52.322;5.926;2023-12-20T08:23:10;6.60;97.20
69189;DHT22;56302;52.322;5.926;2023-12-20T08:25:35;6.70;97.00
69189;DHT22;56302;52.322;5.926;2023-12-20T08:28:02;6.70;97.20
69189;DHT22;56302;52.322;5.926;2023-12-20T08:30:29;6.70;97.30
69189;DHT22;56302;52.322;5.926;2023-12-20T08:32:56;6.70;97.50
69189;DHT22;56302;52.322;5.926;2023-12-20T08:35:22;6.70;97.50
69189;DHT22;56302;52.322;5.926;2023-12-20T08:37:47;6.70;97.70
69189;DHT22;56302;52.322;5.926;2023-12-20T08:40:13;6.60;97.90
69189;DHT22;56302;52.322;5.926;2023-12-20T08:42:39;6.60;98.50
69189;DHT22;56302;52.322;5.926;2023-12-20T08:45:05;6.60;98.80
69189;DHT22;56302;52.322;5.926;2023-12-20T08:47:30;6.60;99.00
69189;DHT22;56302;52.322;5.926;2023-12-20T08:49:56;6.60;99.00
69189;DHT22;56302;52.322;5.926;2023-12-20T08:52:23;6.60;99.00
69189;DHT22;56302;52.322;5.926;2023-12-20T08:54:50;6.60;99.20
69189;DHT22;56302;52.322;5.926;2023-12-20T08:57:19;6.60;99.30
69189;DHT22;56302;52.322;5.926;2023-12-20T08:59:44;6.60;99.50
69189;DHT22;56302;52.322;5.926;2023-12-20T09:02:10;6.70;99.10
69189;DHT22;56302;52.322;5.926;2023-12-20T09:04:35;6.70;98.90
69189;DHT22;56302;52.322;5.926;2023-12-20T09:07:01;6.60;99.10
69189;DHT22;56302;52.322;5.926;2023-12-20T09:09:26;6.60;99.40
69189;DHT22;56302;52.322;5.926;2023-12-20T09:11:52;6.60;99.50
69189;DHT22;56302;52.322;5.926;2023-12-20T09:14:18;6.60;99.70
69189;DHT22;56302;52.322;5.926;2023-12-20T09:16:43;6.70;99.80
69189;DHT22;56302;52.322;5.926;2023-12-20T09:19:09;6.70;99.50
69189;DHT22;56302;52.322;5.926;2023-12-20T09:21:34;6.70;99.50
69189;DHT22;56302;52.322;5.926;2023-12-20T09:24:00;6.70;99.40
69189;DHT22;56302;52.322;5.926;2023-12-20T09:26:25;6.80;99.30
69189;DHT22;56302;52.322;5.926;2023-12-20T09:28:51;6.80;99.20
69189;DHT22;56302;52.322;5.926;2023-12-20T09:31:16;6.80;99.10
69189;DHT22;56302;52.322;5.926;2023-12-20T09:33:42;6.80;99.00
69189;DHT22;56302;52.322;5.926;2023-12-20T09:36:08;6.80;98.80
69189;DHT22;56302;52.322;5.926;2023-12-20T09:38:33;6.80;99.00
69189;DHT22;56302;52.322;5.926;2023-12-20T09:41:00;6.80;99.00
69189;DHT22;56302;52.322;5.926;2023-12-20T09:43:27;6.80;98.90
69189;DHT22;56302;52.322;5.926;2023-12-20T09:46:00;6.80;99.00
69189;DHT22;56302;52.322;5.926;2023-12-20T09:48:27;6.80;99.10
69189;DHT22;56302;52.322;5.926;2023-12-20T09:50:54;6.90;98.80
69189;DHT22;56302;52.322;5.926;2023-12-20T09:53:21;6.90;98.60
69189;DHT22;56302;52.322;5.926;2023-12-20T09:55:48;7.00;98.60
69189;DHT22;56302;52.322;5.926;2023-12-20T09:58:14;7.10;98.00
69189;DHT22;56302;52.322;5.926;2023-12-20T10:00:40;7.20;96.70
69189;DHT22;56302;52.322;5.926;2023-12-20T10:03:06;7.30;96.00
69189;DHT22;56302;52.322;5.926;2023-12-20T10:05:33;7.30;95.60
69189;DHT22;56302;52.322;5.926;2023-12-20T10:08:00;7.20;96.00
69189;DHT22;56302;52.322;5.926;2023-12-20T10:10:26;7.30;96.10
69189;DHT22;56302;52.322;5.926;2023-12-20T10:13:09;7.30;95.50
69189;DHT22;56302;52.322;5.926;2023-12-20T10:15:35;7.30;95.10
69189;DHT22;56302;52.322;5.926;2023-12-20T10:18:02;7.30;95.00
69189;DHT22;56302;52.322;5.926;2023-12-20T10:20:28;7.30;95.20
69189;DHT22;56302;52.322;5.926;2023-12-20T10:22:57;7.40;95.10
69189;DHT22;56302;52.322;5.926;2023-12-20T10:25:24;7.40;95.20
69189;DHT22;56302;52.322;5.926;2023-12-20T10:27:50;7.50;94.30
69189;DHT22;56302;52.322;5.926;2023-12-20T10:30:33;7.50;94.30
69189;DHT22;56302;52.322;5.926;2023-12-20T10:32:59;7.60;93.90
69189;DHT22;56302;52.322;5.926;2023-12-20T10:35:24;7.60;93.70
69189;DHT22;56302;52.322;5.926;2023-12-20T10:37:52;7.60;93.50
69189;DHT22;56302;52.322;5.926;2023-12-20T10:40:21;7.60;94.20
69189;DHT22;56302;52.322;5.926;2023-12-20T10:42:47;7.70;93.40
69189;DHT22;56302;52.322;5.926;2023-12-20T10:45:12;7.70;93.60
69189;DHT22;56302;52.322;5.926;2023-12-20T10:47:39;7.80;92.70
69189;DHT22;56302;52.322;5.926;2023-12-20T10:50:06;7.90;93.50
69189;DHT22;56302;52.322;5.926;2023-12-20T10:52:34;7.90;93.00
69189;DHT22;56302;52.322;5.926;2023-12-20T10:55:01;8.00;92.70
69189;DHT22;56302;52.322;5.926;2023-12-20T10:57:27;8.10;91.30
69189;DHT22;56302;52.322;5.926;2023-12-20T10:59:54;8.20;91.20
69189;DHT22;56302;52.322;5.926;2023-12-20T11:02:22;8.20;90.10
69189;DHT22;56302;52.322;5.926;2023-12-20T11:04:59;8.30;90.40
69189;DHT22;56302;52.322;5.926;2023-12-20T11:07:33;8.30;90.40
69189;DHT22;56302;52.322;5.926;2023-12-20T11:10:21;8.40;90.30
69189;DHT22;56302;52.322;5.926;2023-12-20T11:13:10;8.50;89.20
69189;DHT22;56302;52.322;5.926;2023-12-20T11:15:37;8.60;89.60
69189;DHT22;56302;52.322;5.926;2023-12-20T11:18:04;8.70;89.00
69189;DHT22;56302;52.322;5.926;2023-12-20T11:20:42;8.80;88.10
69189;DHT22;56302;52.322;5.926;2023-12-20T11:23:08;8.90;88.50
69189;DHT22;56302;52.322;5.926;2023-12-20T11:25:48;8.90;88.10
69189;DHT22;56302;52.322;5.926;2023-12-20T11:28:21;8.80;86.20
69189;DHT22;56302;52.322;5.926;2023-12-20T11:30:48;8.90;86.90
69189;DHT22;56302;52.322;5.926;2023-12-20T11:33:15;9.00;86.90
69189;DHT22;56302;52.322;5.926;2023-12-20T11:35:42;9.10;87.50
69189;DHT22;56302;52.322;5.926;2023-12-20T11:38:11;9.10;85.10
69189;DHT22;56302;52.322;5.926;2023-12-20T11:40:37;9.00;86.70
69189;DHT22;56302;52.322;5.926;2023-12-20T11:43:03;8.80;85.40
69189;DHT22;56302;52.322;5.926;2023-12-20T11:45:30;8.80;85.80
69189;DHT22;56302;52.322;5.926;2023-12-20T11:47:56;8.80;86.20
69189;DHT22;56302;52.322;5.926;2023-12-20T11:50:23;8.80;85.50
69189;DHT22;56302;52.322;5.926;2023-12-20T11:52:51;8.80;86.30
69189;DHT22;56302;52.322;5.926;2023-12-20T11:55:17;8.80;87.30
69189;DHT22;56302;52.322;5.926;2023-12-20T11:57:43;8.70;87.40
69189;DHT22;56302;52.322;5.926;2023-12-20T12:00:10;8.70;86.50
69189;DHT22;56302;52.322;5.926;2023-12-20T12:02:36;8.60;86.00
69189;DHT22;56302;52.322;5.926;2023-12-20T12:05:01;8.60;86.00
69189;DHT22;56302;52.322;5.926;2023-12-20T12:07:27;8.60;86.90
69189;DHT22;56302;52.322;5.926;2023-12-20T12:10:02;8.60;85.90
69189;DHT22;56302;52.322;5.926;2023-12-20T12:12:31;8.60;87.10
69189;DHT22;56302;52.322;5.926;2023-12-20T12:14:58;8.60;85.70
69189;DHT22;56302;52.322;5.926;2023-12-20T12:17:23;8.50;85.90
69189;DHT22;56302;52.322;5.926;2023-12-20T12:19:49;8.50;86.20
69189;DHT22;56302;52.322;5.926;2023-12-20T12:22:15;8.50;86.70
69189;DHT22;56302;52.322;5.926;2023-12-20T12:24:46;8.50;86.60
69189;DHT22;56302;52.322;5.926;2023-12-20T12:27:13;8.50;86.90
69189;DHT22;56302;52.322;5.926;2023-12-20T12:29:38;8.50;87.40
69189;DHT22;56302;52.322;5.926;2023-12-20T12:32:09;8.50;87.60
69189;DHT22;56302;52.322;5.926;2023-12-20T12:34:35;8.50;87.80
69189;DHT22;56302;52.322;5.926;2023-12-20T12:37:01;8.50;87.40
69189;DHT22;56302;52.322;5.926;2023-12-20T12:39:27;8.50;86.50
69189;DHT22;56302;52.322;5.926;2023-12-20T12:41:55;8.60;86.90
69189;DHT22;56302;52.322;5.926;2023-12-20T12:44:21;8.50;87.20
69189;DHT22;56302;52.322;5.926;2023-12-20T12:46:49;8.50;86.70
69189;DHT22;56302;52.322;5.926;2023-12-20T12:49:19;8.50;87.50
69189;DHT22;56302;52.322;5.926;2023-12-20T12:51:45;8.50;87.30
69189;DHT22;56302;52.322;5.926;2023-12-20T12:54:11;8.50;87.10
69189;DHT22;56302;52.322;5.926;2023-12-20T12:56:39;8.50;86.60
69189;DHT22;56302;52.322;5.926;2023-12-20T12:59:04;8.50;86.60
69189;DHT22;56302;52.322;5.926;2023-12-20T13:01:31;8.50;87.80
69189;DHT22;56302;52.322;5.926;2023-12-20T13:03:56;8.50;87.70
69189;DHT22;56302;52.322;5.926;2023-12-20T13:06:22;8.40;88.40
69189;DHT22;56302;52.322;5.926;2023-12-20T13:08:48;8.40;88.70
69189;DHT22;56302;52.322;5.926;2023-12-20T13:11:14;8.40;88.30
69189;DHT22;56302;52.322;5.926;2023-12-20T13:13:39;8.40;88.20
69189;DHT22;56302;52.322;5.926;2023-12-20T13:16:05;8.40;88.20
69189;DHT22;56302;52.322;5.926;2023-12-20T13:18:31;8.40;87.80
69189;DHT22;56302;52.322;5.926;2023-12-20T13:20:56;8.30;88.20
69189;DHT22;56302;52.322;5.926;2023-12-20T13:23:22;8.30;88.30
69189;DHT22;56302;52.322;5.926;2023-12-20T13:25:48;8.30;87.90
69189;DHT22;56302;52.322;5.926;2023-12-20T13:28:13;8.30;88.90
69189;DHT22;56302;52.322;5.926;2023-12-20T13:30:40;8.30;88.20
69189;DHT22;56302;52.322;5.926;2023-12-20T13:33:06;8.30;88.60
69189;DHT22;56302;52.322;5.926;2023-12-20T13:35:32;8.30;88.50
69189;DHT22;56302;52.322;5.926;2023-12-20T13:38:00;8.30;88.70
69189;DHT22;56302;52.322;5.926;2023-12-20T13:40:26;8.30;88.70
69189;DHT22;56302;52.322;5.926;2023-12-20T13:42:51;8.30;88.60
69189;DHT22;56302;52.322;5.926;2023-12-20T13:45:17;8.30;88.90
69189;DHT22;56302;52.322;5.926;2023-12-20T13:47:43;8.30;89.00
69189;DHT22;56302;52.322;5.926;2023-12-20T13:50:08;8.30;89.40
69189;DHT22;56302;52.322;5.926;2023-12-20T13:52:35;8.30;89.20
69189;DHT22;56302;52.322;5.926;2023-12-20T13:55:01;8.20;89.40
69189;DHT22;56302;52.322;5.926;2023-12-20T13:57:27;8.30;89.10
69189;DHT22;56302;52.322;5.926;2023-12-20T13:59:54;8.30;88.80
69189;DHT22;56302;52.322;5.926;2023-12-20T14:02:20;8.20;89.50
69189;DHT22;56302;52.322;5.926;2023-12-20T14:04:45;8.20;89.10
69189;DHT22;56302;52.322;5.926;2023-12-20T14:07:11;8.20;89.40
69189;DHT22;56302;52.322;5.926;2023-12-20T14:09:36;8.20;89.60
69189;DHT22;56302;52.322;5.926;2023-12-20T14:12:02;8.20;89.70
69189;DHT22;56302;52.322;5.926;2023-12-20T14:14:28;8.20;90.00
69189;DHT22;56302;52.322;5.926;2023-12-20T14:16:54;8.20;89.20
69189;DHT22;56302;52.322;5.926;2023-12-20T14:19:19;8.20;89.50
69189;DHT22;56302;52.322;5.926;2023-12-20T14:21:45;8.10;90.10
69189;DHT22;56302;52.322;5.926;2023-12-20T14:24:13;8.10;90.60
69189;DHT22;56302;52.322;5.926;2023-12-20T14:26:40;8.10;90.80
69189;DHT22;56302;52.322;5.926;2023-12-20T14:29:06;8.10;90.70
69189;DHT22;56302;52.322;5.926;2023-12-20T14:31:33;8.10;90.70
69189;DHT22;56302;52.322;5.926;2023-12-20T14:33:58;8.10;90.80
69189;DHT22;56302;52.322;5.926;2023-12-20T14:36:24;8.10;90.40
69189;DHT22;56302;52.322;5.926;2023-12-20T14:38:50;8.10;90.40
69189;DHT22;56302;52.322;5.926;2023-12-20T14:41:16;8.10;89.80
69189;DHT22;56302;52.322;5.926;2023-12-20T14:43:43;8.10;90.30
69189;DHT22;56302;52.322;5.926;2023-12-20T14:46:08;8.10;90.50
69189;DHT22;56302;52.322;5.926;2023-12-20T14:48:34;8.10;90.50
69189;DHT22;56302;52.322;5.926;2023-12-20T14:51:00;8.00;90.50
69189;DHT22;56302;52.322;5.926;2023-12-20T14:53:26;8.10;90.60
69189;DHT22;56302;52.322;5.926;2023-12-20T14:55:52;8.00;90.80
69189;DHT22;56302;52.322;5.926;2023-12-20T14:58:17;8.00;90.50
69189;DHT22;56302;52.322;5.926;2023-12-20T15:00:43;8.00;90.60
69189;DHT22;56302;52.322;5.926;2023-12-20T15:03:10;8.00;90.90
69189;DHT22;56302;52.322;5.926;2023-12-20T15:05:35;8.00;90.90
69189;DHT22;56302;52.322;5.926;2023-12-20T15:08:02;8.00;90.90
69189;DHT22;56302;52.322;5.926;2023-12-20T15:10:27;8.00;90.70
69189;DHT22;56302;52.322;5.926;2023-12-20T15:12:53;8.00;90.80
69189;DHT22;56302;52.322;5.926;2023-12-20T15:15:19;8.00;91.00
69189;DHT22;56302;52.322;5.926;2023-12-20T15:17:45;7.90;91.50
69189;DHT22;56302;52.322;5.926;2023-12-20T15:20:11;7.90;91.80
69189;DHT22;56302;52.322;5.926;2023-12-20T15:22:37;7.90;91.70
69189;DHT22;56302;52.322;5.926;2023-12-20T15:25:03;7.90;92.00
69189;DHT22;56302;52.322;5.926;2023-12-20T15:27:31;7.90;92.20
69189;DHT22;56302;52.322;5.926;2023-12-20T15:29:59;7.90;92.30
69189;DHT22;56302;52.322;5.926;2023-12-20T15:32:24;7.80;92.50
69189;DHT22;56302;52.322;5.926;2023-12-20T15:34:50;7.80;92.80
69189;DHT22;56302;52.322;5.926;2023-12-20T15:37:17;7.80;93.20
69189;DHT22;56302;52.322;5.926;2023-12-20T15:39:43;7.80;93.60